Latest Coastal Weather Observations for Centre Island

IDD60701

Issued at 1:25 am CST Friday 22 August 2014 (issued every 10 minutes, with the page automatically refreshed every 10 minutes)

About coastal observations | Map of coastal stations | Coastal observations for NT | Marine services | Other Formats
Station Details ID: 014703 Name: CENTRE ISLAND Lat: -15.74 Lon: 136.82 Height: 12.2 m
Data from the previous 72 hours. | See also: Recent months at Centre Island
Date/Time
CST
Temp

°C
Wind Pressure Rain
since 9am
mm
Weather Cloud Vis
km
Sea
Height
m
Swell
Dir
 
Speed
knots
Gust
knots
hPa Trend Height
m
Period
s
Dir
22/01:00am 17.4 NW 3 4 1016.9 - 0.0 - - - - - - -
22/12:30am 17.2 N 2 4 1016.7 - 0.0 - - - - - - -
22/12:00am 17.3 NNW 1 3 1016.7 - 0.0 - - - - - - -
 
Date/Time
CST
Temp

°C
Wind Pressure Rain
since 9am
mm
Weather Cloud Vis
km
Sea
Height
m
Swell
Dir
 
Speed
knots
Gust
knots
hPa Trend Height
m
Period
s
Dir
21/11:30pm 17.2 NNW 4 5 1016.6 - 0.0 - - - - - - -
21/11:00pm 17.4 NNW 3 4 1016.6 - 0.0 - - - - - - -
21/10:30pm 18.1 N 3 4 1016.6 - 0.0 - - - - - - -
21/10:00pm 18.6 NNW 4 5 1016.3 - 0.0 - - - - - - -
21/09:30pm 19.8 NNE 6 8 1016.1 - 0.0 - - - - - - -
21/09:00pm 19.7 NE 5 6 1016.0 - 0.0 - - - - - - -
21/08:30pm 20.1 NE 6 8 1015.9 - 0.0 - - - - - - -
21/08:00pm 20.6 NE 7 10 1015.8 - 0.0 - - - - - - -
21/07:30pm 20.8 NE 9 12 1015.5 - 0.0 - - - - - - -
21/07:00pm 21.0 NE 10 12 1015.2 - 0.0 - - - - - - -
21/06:30pm 21.2 NNE 10 13 1014.8 - 0.0 - - - - - - -
21/06:00pm 21.8 NNE 10 13 1014.4 - 0.0 - - - - - - -
21/05:30pm 23.1 NNE 9 12 1014.1 - 0.0 - - - - - - -
21/05:00pm 23.9 NE 9 11 1013.9 - 0.0 - - - - - - -
21/04:30pm 24.9 NE 8 10 1013.9 - 0.0 - - - - - - -
21/04:00pm 25.3 ENE 10 12 1013.7 - 0.0 - - - - - - -
21/03:30pm 25.4 ENE 9 12 1013.8 - 0.0 - - - - - - -
21/03:00pm 25.6 ENE 7 8 1013.9 - 0.0 - - - - - - -
21/02:30pm 25.3 E 6 8 1014.3 - 0.0 - - - - - - -
21/02:00pm 25.0 E 5 7 1014.7 - 0.0 - - - - - - -
21/01:30pm 25.1 ESE 5 6 1015.2 - 0.0 - - - - - - -
21/01:00pm 25.4 E 5 6 1015.6 - 0.0 - - - - - - -
21/12:30pm 24.2 E 4 6 1016.1 - 0.0 - - - - - - -
21/12:00pm 24.0 W 5 7 1016.3 - 0.0 - - - - - - -
21/11:30am 24.0 SSE 4 5 1017.0 - 0.0 - - - - - - -
21/11:00am 23.4 S 6 8 1017.5 - 0.0 - - - - - - -
21/10:30am 22.7 S 9 11 1018.0 - 0.0 - - - - - - -
21/10:00am 21.3 S 8 10 1018.4 - 0.0 - - - - - - -
21/09:30am 20.0 S 9 11 1018.6 - 0.0 - - - - - - -
21/09:00am 20.3 SSE 13 16 1018.4 - 0.0 - - - - - - -
21/08:30am 20.0 SSE 16 19 1018.2 - 0.0 - - - - - - -
21/08:00am 19.6 SSE 19 22 1017.9 - 0.0 - - - - - - -
21/07:30am 19.4 SSE 19 22 1017.6 - 0.0 - - - - - - -
21/07:00am 19.0 SSE 20 23 1017.2 - 0.0 - - - - - - -
21/06:30am 19.0 SSE 19 23 1016.8 - 0.0 - - - - - - -
21/06:00am 19.1 SSE 18 22 1016.4 - 0.0 - - - - - - -
21/05:30am 18.8 SSE 12 14 1016.3 - 0.0 - - - - - - -
21/05:00am 18.8 SSE 11 13 1016.1 - 0.0 - - - - - - -
21/04:30am 19.0 S 11 14 1015.8 - 0.0 - - - - - - -
21/04:00am 18.6 S 9 10 1015.6 - 0.0 - - - - - - -
21/03:30am 18.6 S 9 11 1015.6 - 0.0 - - - - - - -
21/03:00am 18.8 SSW 9 11 1015.7 - 0.0 - - - - - - -
21/02:30am 18.7 SSW 9 10 1015.8 - 0.0 - - - - - - -
21/02:00am 18.7 SSW 9 11 1016.0 - 0.0 - - - - - - -
21/01:30am 18.8 S 9 11 1016.2 - 0.0 - - - - - - -
21/01:00am 18.7 SSW 7 9 1016.1 - 0.0 - - - - - - -
21/12:30am 18.7 SW 6 9 1016.3 - 0.0 - - - - - - -
21/12:00am 19.0 SW 6 7 1016.4 - 0.0 - - - - - - -
 
Date/Time
CST
Temp

°C
Wind Pressure Rain
since 9am
mm
Weather Cloud Vis
km
Sea
Height
m
Swell
Dir
 
Speed
knots
Gust
knots
hPa Trend Height
m
Period
s
Dir
20/11:30pm 18.6 NW 5 6 1016.5 - 0.0 - - - - - - -
20/11:00pm 17.7 NW 4 5 1016.6 - 0.0 - - - - - - -
20/10:30pm 17.8 NNW 3 6 1016.5 - 0.0 - - - - - - -
20/10:00pm 18.0 CALM 0 0 1016.3 - 0.0 - - - - - - -
20/09:30pm 19.1 NE 3 4 1016.2 - 0.0 - - - - - - -
20/09:00pm 20.1 NE 5 6 1016.1 - 0.0 - - - - - - -
20/08:30pm 19.9 NNE 5 6 1015.8 - 0.0 - - - - - - -
20/08:00pm 20.3 NE 6 7 1015.5 - 0.0 - - - - - - -
20/07:30pm 20.6 NE 6 7 1015.3 - 0.0 - - - - - - -
20/07:00pm 20.8 NE 7 8 1014.9 - 0.0 - - - - - - -
20/06:30pm 21.2 NNE 8 11 1014.6 - 0.0 - - - - - - -
20/06:00pm 21.8 NNE 10 14 1014.2 - 0.0 - - - - - - -
20/05:30pm 22.6 NNE 10 14 1013.9 - 0.0 - - - - - - -
20/05:00pm 23.0 NNE 11 14 1013.8 - 0.0 - - - - - - -
20/04:30pm 23.6 NNE 12 15 1013.7 - 0.0 - - - - - - -
20/04:00pm 23.9 NNE 11 15 1013.8 - 0.0 - - - - - - -
20/03:30pm 24.8 NNE 10 13 1013.9 - 0.0 - - - - - - -
20/03:00pm 25.5 ENE 6 7 1014.2 - 0.0 - - - - - - -
20/02:30pm 25.5 E 5 7 1014.4 - 0.0 - - - - - - -
20/02:00pm 25.2 E 8 10 1015.0 - 0.0 - - - - - - -
20/01:30pm 25.1 ESE 10 12 1015.5 - 0.0 - - - - - - -
20/01:00pm 25.1 E 11 14 1015.9 - 0.0 - - - - - - -
20/12:30pm 24.8 E 14 17 1016.5 - 0.0 - - - - - - -
20/12:00pm 24.2 ESE 14 17 1017.0 - 0.0 - - - - - - -
20/11:30am 24.0 ESE 16 19 1017.5 - 0.0 - - - - - - -
20/11:00am 23.4 ESE 15 18 1017.8 - 0.0 - - - - - - -
20/10:30am 22.6 ESE 9 10 1018.2 - 0.0 - - - - - - -
20/10:00am 22.2 SE 8 10 1018.2 - 0.0 - - - - - - -
20/09:30am 21.4 SE 10 12 1018.1 - 0.0 - - - - - - -
20/09:00am 20.3 SSE 12 16 1017.8 - 0.0 - - - - - - -
20/08:30am 19.4 SSE 14 16 1017.5 - 0.0 - - - - - - -
20/08:00am 19.2 S 11 14 1017.4 - 0.0 - - - - - - -
20/07:30am 18.9 S 11 14 1017.3 - 0.0 - - - - - - -
20/07:00am 18.4 SSW 12 15 1017.0 - 0.0 - - - - - - -
20/06:30am 18.0 S 12 14 1016.7 - 0.0 - - - - - - -
20/06:00am 18.1 SSW 11 13 1016.6 - 0.0 - - - - - - -
20/05:30am 18.2 SSW 12 14 1016.3 - 0.0 - - - - - - -
20/05:00am 18.1 SSW 12 15 1016.2 - 0.0 - - - - - - -
20/04:30am 18.1 SSW 12 15 1015.9 - 0.0 - - - - - - -
20/04:00am 17.8 SSW 11 13 1015.9 - 0.0 - - - - - - -
20/03:30am 17.6 SSW 11 14 1015.9 - 0.0 - - - - - - -
20/03:00am 17.8 SW 7 9 1015.6 - 0.0 - - - - - - -
20/02:30am 17.8 WSW 6 8 1015.8 - 0.0 - - - - - - -
20/02:00am 18.1 WSW 7 8 1015.9 - 0.0 - - - - - - -
20/01:30am 17.8 W 5 6 1015.9 - 0.0 - - - - - - -
20/01:00am 17.4 W 4 4 1016.1 - 0.0 - - - - - - -
20/12:30am 17.1 W 4 5 1016.3 - 0.0 - - - - - - -
20/12:00am 17.1 NW 1 4 1016.4 - 0.0 - - - - - - -
 
Date/Time
CST
Temp

°C
Wind Pressure Rain
since 9am
mm
Weather Cloud Vis
km
Sea
Height
m
Swell
Dir
 
Speed
knots
Gust
knots
hPa Trend Height
m
Period
s
Dir
19/11:30pm 17.5 CALM 0 0 1016.4 - 0.0 - - - - - - -
19/11:00pm 18.8 N 3 5 1016.4 - 0.0 - - - - - - -
19/10:30pm 19.6 NE 5 7 1016.3 - 0.0 - - - - - - -
19/10:00pm 19.9 NE 7 8 1016.2 - 0.0 - - - - - - -
19/09:30pm 20.2 NE 7 9 1016.1 - 0.0 - - - - - - -
19/09:00pm 20.4 NE 7 9 1016.1 - 0.0 - - - - - - -
19/08:30pm 20.3 NNE 7 9 1016.1 - 0.0 - - - - - - -
19/08:00pm 20.4 NE 8 10 1015.6 - 0.0 - - - - - - -
19/07:30pm 20.6 NE 8 11 1015.3 - 0.0 - - - - - - -
19/07:00pm 20.9 ENE 10 13 1014.9 - 0.0 - - - - - - -
19/06:30pm 21.2 ENE 12 14 1014.8 - 0.0 - - - - - - -
19/06:00pm 21.5 NE 11 15 1014.5 - 0.0 - - - - - - -
19/05:30pm 22.0 NE 13 16 1014.4 - 0.0 - - - - - - -
19/05:00pm 22.6 NE 13 16 1014.3 - 0.0 - - - - - - -
19/04:30pm 23.2 NE 12 15 1014.5 - 0.0 - - - - - - -
19/04:00pm 24.0 NE 12 15 1014.5 - 0.0 - - - - - - -
19/03:30pm 24.8 ENE 9 11 1014.7 - 0.0 - - - - - - -
19/03:00pm 25.1 E 9 11 1015.0 - 0.0 - - - - - - -
19/02:30pm 24.7 E 7 10 1015.3 - 0.0 - - - - - - -
19/02:00pm 25.1 ENE 6 9 1015.6 - 0.0 - - - - - - -
19/01:30pm 24.6 E 7 9 1016.0 - 0.0 - - - - - - -
19/01:00pm 24.9 E 9 11 1016.6 - 0.0 - - - - - - -
19/12:30pm 24.8 E 10 13 1017.0 - 0.0 - - - - - - -
19/12:00pm 24.5 ESE 14 16 1017.6 - 0.0 - - - - - - -
19/11:30am 23.8 E 12 15 1018.2 - 0.0 - - - - - - -
19/11:00am 23.6 ESE 11 14 1018.7 - 0.0 - - - - - - -
19/10:30am 22.4 ESE 7 12 1019.3 - 0.0 - - - - - - -
19/10:00am 20.7 SE 7 8 1019.5 - 0.0 - - - - - - -
19/09:30am 19.5 S 7 9 1019.5 - 0.0 - - - - - - -
19/09:00am 18.7 S 9 11 1019.6 - 0.0 - - - - - - -
19/08:30am 18.6 S 9 11 1019.6 - 0.0 - - - - - - -
19/08:00am 18.2 SSW 9 12 1019.2 - 0.0 - - - - - - -
19/07:30am 17.8 SW 6 8 1018.9 - 0.0 - - - - - - -
19/07:00am 16.6 SW 5 6 1018.5 - 0.0 - - - - - - -
19/06:30am 16.7 SW 7 8 1018.2 - 0.0 - - - - - - -
19/06:00am 16.8 SSW 7 9 1018.0 - 0.0 - - - - - - -
19/05:30am 17.2 SSW 9 12 1017.8 - 0.0 - - - - - - -
19/05:00am 17.3 SSW 9 10 1017.5 - 0.0 - - - - - - -
19/04:30am 17.3 SSW 8 11 1017.4 - 0.0 - - - - - - -
19/04:00am 17.5 SSW 10 13 1017.4 - 0.0 - - - - - - -
19/03:30am 17.4 SSW 8 11 1017.3 - 0.0 - - - - - - -
19/03:00am 17.5 SSW 9 11 1017.3 - 0.0 - - - - - - -
19/02:30am 17.5 SSW 9 11 1017.4 - 0.0 - - - - - - -
19/02:00am 17.8 S 9 10 1017.4 - 0.0 - - - - - - -
19/01:30am 17.9 S 7 8 1017.5 - 0.0 - - - - - - -

Other Formats:

Comma delimited format used in spreadsheet applications
http://www.bom.gov.au/fwo/IDD60701/IDD60701.94248.axf

JavaScript Object Notation format (JSON) in row-major order
http://www.bom.gov.au/fwo/IDD60701/IDD60701.94248.json